createdAt,value
2019-02-07T00:00:03.328Z,20.20
2019-02-07T00:01:03.279Z,19.70
2019-02-07T00:02:03.246Z,20.30
2019-02-07T00:03:03.181Z,20.40
2019-02-07T00:04:03.129Z,20.70
2019-02-07T00:05:03.076Z,19.60
2019-02-07T00:06:03.049Z,19.30
2019-02-07T00:07:03.022Z,20.20
2019-02-07T00:08:02.943Z,19.70
2019-02-07T00:09:02.911Z,18.50
2019-02-07T00:10:02.871Z,19.70
2019-02-07T00:11:02.813Z,20.20
2019-02-07T00:12:02.783Z,18.50
2019-02-07T00:13:02.747Z,19.30
2019-02-07T00:14:02.698Z,19.50
2019-02-07T00:15:02.643Z,19.20
2019-02-07T00:16:02.591Z,19.80
2019-02-07T00:17:02.540Z,19.20
2019-02-07T00:18:02.519Z,18.80
2019-02-07T00:19:02.447Z,19.70
2019-02-07T00:20:02.411Z,19.40
2019-02-07T00:21:02.387Z,19.30
2019-02-07T00:22:02.335Z,19.80
2019-02-07T00:23:02.275Z,19.90
2019-02-07T00:24:02.238Z,18.90
2019-02-07T00:25:02.178Z,18.30
2019-02-07T00:26:02.166Z,19.80
2019-02-07T00:27:02.093Z,19.10
2019-02-07T00:28:02.053Z,18.90
2019-02-07T00:29:01.990Z,18.90
2019-02-07T00:30:01.992Z,18.60
2019-02-07T00:31:01.910Z,19.80
2019-02-07T00:32:01.904Z,18.50
2019-02-07T00:33:01.825Z,19.10
2019-02-07T00:34:01.770Z,18.70
2019-02-07T00:35:01.730Z,17.70
2019-02-07T00:36:01.712Z,17.70
2019-02-07T00:37:01.637Z,18.20
2019-02-07T00:38:01.613Z,18.70
2019-02-07T00:39:01.542Z,18.00
2019-02-07T00:40:01.508Z,18.70
2019-02-07T00:41:01.457Z,17.70
2019-02-07T00:42:01.446Z,18.30
2019-02-07T00:43:01.368Z,18.30
2019-02-07T00:44:01.351Z,18.70
2019-02-07T00:45:01.273Z,18.60
2019-02-07T00:46:01.238Z,18.40
2019-02-07T00:47:01.192Z,18.20
2019-02-07T00:48:01.139Z,16.70
2019-02-07T00:49:01.126Z,17.90
2019-02-07T00:50:01.047Z,17.80
2019-02-07T00:51:01.004Z,17.90
2019-02-07T00:52:00.959Z,18.20
2019-02-07T00:53:00.910Z,18.10
2019-02-07T00:54:00.879Z,18.90
2019-02-07T00:55:00.855Z,19.20
2019-02-07T00:56:00.779Z,18.90
2019-02-07T00:57:00.741Z,18.90
2019-02-07T00:58:00.697Z,17.60
2019-02-07T00:59:00.648Z,18.30
2019-02-07T01:00:00.606Z,17.20
2019-02-07T01:01:00.563Z,18.20
2019-02-07T01:02:00.504Z,18.70
2019-02-07T01:03:00.458Z,18.30
2019-02-07T01:04:00.413Z,17.70
2019-02-07T01:05:00.461Z,18.20
2019-02-07T01:06:00.334Z,19.20
2019-02-07T01:07:00.279Z,17.90
2019-02-07T01:08:00.236Z,19.00
2019-02-07T01:09:00.180Z,18.90
2019-02-07T01:10:00.202Z,17.60
2019-02-07T01:11:00.085Z,19.80
2019-02-07T01:12:00.035Z,19.30
2019-02-07T01:12:59.997Z,19.60
2019-02-07T01:13:59.987Z,19.00
2019-02-07T01:15:02.294Z,18.70
2019-02-07T01:15:59.863Z,19.10
2019-02-07T01:16:59.825Z,20.00
2019-02-07T01:17:59.777Z,18.90
2019-02-07T01:18:59.758Z,19.20
2019-02-07T01:19:59.681Z,18.40
2019-02-07T01:20:59.668Z,19.60
2019-02-07T01:21:59.583Z,20.30
2019-02-07T01:22:59.538Z,20.70
2019-02-07T01:23:59.495Z,21.50
2019-02-07T01:24:59.456Z,19.50
2019-02-07T01:25:59.405Z,20.30
2019-02-07T01:26:59.387Z,19.50
2019-02-07T01:27:59.319Z,21.50
2019-02-07T01:28:59.265Z,18.70
2019-02-07T01:29:59.219Z,19.50
2019-02-07T01:30:59.182Z,19.50
2019-02-07T01:31:59.162Z,20.20
2019-02-07T01:32:59.105Z,19.10
2019-02-07T01:33:59.044Z,19.80
2019-02-07T01:34:58.988Z,18.80
2019-02-07T01:35:58.954Z,20.20
2019-02-07T01:36:58.931Z,20.50
2019-02-07T01:37:58.862Z,19.30
2019-02-07T01:38:58.814Z,18.50
2019-02-07T01:39:58.792Z,19.20
2019-02-07T01:40:58.744Z,20.40
2019-02-07T01:41:58.671Z,19.80
2019-02-07T01:42:58.650Z,19.30
2019-02-07T01:43:58.660Z,19.30
2019-02-07T01:44:58.535Z,19.70
2019-02-07T01:45:58.523Z,17.70
2019-02-07T01:46:58.449Z,18.50
2019-02-07T01:47:58.405Z,18.70
2019-02-07T01:48:58.388Z,18.90
2019-02-07T01:49:58.308Z,18.60
2019-02-07T01:50:58.268Z,19.30
2019-02-07T01:51:58.218Z,18.70
2019-02-07T01:52:58.163Z,19.30
2019-02-07T01:53:58.144Z,18.90
2019-02-07T01:54:58.076Z,18.50
2019-02-07T01:55:58.026Z,18.10
2019-02-07T01:56:58.005Z,18.70
2019-02-07T01:57:57.950Z,18.60
2019-02-07T01:58:57.937Z,18.00
2019-02-07T01:59:57.851Z,17.30
2019-02-07T02:00:57.804Z,18.30
2019-02-07T02:01:57.780Z,18.50
2019-02-07T02:02:57.716Z,17.50
2019-02-07T02:03:57.684Z,18.40
2019-02-07T02:04:57.618Z,18.80
2019-02-07T02:05:57.665Z,16.90
2019-02-07T02:06:57.534Z,17.70
2019-02-07T02:07:57.476Z,18.10
2019-02-07T02:08:57.469Z,18.40
2019-02-07T02:09:57.395Z,17.50
2019-02-07T02:10:57.380Z,19.50
2019-02-07T02:11:57.385Z,20.30
2019-02-07T02:12:57.250Z,19.20
2019-02-07T02:13:57.246Z,19.20
2019-02-07T02:14:57.163Z,18.00
2019-02-07T02:15:57.108Z,18.80
2019-02-07T02:16:57.096Z,19.00
2019-02-07T02:17:57.026Z,19.30
2019-02-07T02:18:56.976Z,19.30
2019-02-07T02:19:56.927Z,18.90
2019-02-07T02:20:56.887Z,18.70
2019-02-07T02:21:56.872Z,18.90
2019-02-07T02:22:56.813Z,19.10
2019-02-07T02:23:56.753Z,19.90
2019-02-07T02:24:56.735Z,20.20
2019-02-07T02:25:56.663Z,19.10
2019-02-07T02:26:56.608Z,20.00
2019-02-07T02:27:56.574Z,19.70
2019-02-07T02:28:56.528Z,18.70
2019-02-07T02:29:56.504Z,20.20
2019-02-07T02:30:56.432Z,20.10
2019-02-07T02:31:56.388Z,19.80
2019-02-07T02:32:56.336Z,19.20
2019-02-07T02:33:56.291Z,20.10
2019-02-07T02:34:56.248Z,20.50
2019-02-07T02:35:56.226Z,20.20
2019-02-07T02:36:56.151Z,19.80
2019-02-07T02:37:56.124Z,20.00
2019-02-07T02:38:56.056Z,19.00
2019-02-07T02:39:56.011Z,19.50
2019-02-07T02:40:55.985Z,19.20
2019-02-07T02:41:55.927Z,18.50
2019-02-07T02:42:55.908Z,19.30
2019-02-07T02:43:55.835Z,19.60
2019-02-07T02:44:55.790Z,17.60
2019-02-07T02:45:55.738Z,17.40
2019-02-07T02:46:55.692Z,18.30
2019-02-07T02:47:55.668Z,17.60
2019-02-07T02:48:55.606Z,17.50
2019-02-07T02:49:55.563Z,17.20
2019-02-07T02:50:55.506Z,17.50
2019-02-07T02:51:55.480Z,18.00
2019-02-07T02:52:55.420Z,17.70
2019-02-07T02:53:55.375Z,17.80
2019-02-07T02:54:55.349Z,17.70
2019-02-07T02:55:55.290Z,18.00
2019-02-07T02:56:55.231Z,17.60
2019-02-07T02:57:55.214Z,18.10
2019-02-07T02:58:55.136Z,19.00
2019-02-07T02:59:55.101Z,18.60
2019-02-07T03:00:55.054Z,17.20
2019-02-07T03:01:55.011Z,1.10
2019-02-07T03:02:54.966Z,0.70
2019-02-07T03:03:54.940Z,0.60
2019-02-07T03:04:54.863Z,1.60
2019-02-07T03:05:54.815Z,0.90
2019-02-07T03:06:54.782Z,1.00
2019-02-07T03:07:54.731Z,0.50
2019-02-07T03:08:54.708Z,0.90
2019-02-07T03:09:54.637Z,0.60
2019-02-07T03:10:54.586Z,1.50
2019-02-07T03:11:54.541Z,0.60
2019-02-07T03:12:54.525Z,1.40
2019-02-07T03:13:54.457Z,1.50
2019-02-07T03:14:54.411Z,0.60
2019-02-07T03:15:54.398Z,0.70
2019-02-07T03:16:54.308Z,0.60
2019-02-07T03:17:54.270Z,0.80
2019-02-07T03:18:54.218Z,1.20
2019-02-07T03:19:54.181Z,1.70
2019-02-07T03:20:54.159Z,1.20
2019-02-07T03:21:54.096Z,0.90
2019-02-07T03:22:54.040Z,0.70
2019-02-07T03:23:54.009Z,0.70
2019-02-07T03:24:53.949Z,1.30
2019-02-07T03:25:53.914Z,0.60
2019-02-07T03:26:53.859Z,2.60
2019-02-07T03:27:53.818Z,1.00
2019-02-07T03:28:53.811Z,0.90
2019-02-07T03:29:53.714Z,0.60
2019-02-07T03:30:53.676Z,0.90
2019-02-07T03:31:53.629Z,0.90
2019-02-07T03:32:53.595Z,1.30
2019-02-07T03:33:53.539Z,0.90
2019-02-07T03:34:53.518Z,1.10
2019-02-07T03:35:53.474Z,1.00
2019-02-07T03:36:53.396Z,1.00
2019-02-07T03:37:53.347Z,1.20
2019-02-07T03:38:53.306Z,0.60
2019-02-07T03:39:53.318Z,1.10
2019-02-07T03:40:53.218Z,1.10
2019-02-07T03:41:53.162Z,1.30
2019-02-07T03:42:53.121Z,0.80
2019-02-07T03:43:53.067Z,0.80
2019-02-07T03:44:53.056Z,0.70
2019-02-07T03:46:02.392Z,2.50
2019-02-07T03:46:52.944Z,2.00
2019-02-07T03:47:52.912Z,1.50
2019-02-07T03:48:52.852Z,1.40
2019-02-07T03:49:52.800Z,2.30
2019-02-07T03:50:52.749Z,2.00
2019-02-07T03:51:52.725Z,9.40
2019-02-07T03:52:52.669Z,12.40
2019-02-07T03:53:52.615Z,17.20
2019-02-07T03:54:52.577Z,22.90
2019-02-07T03:55:52.519Z,24.30
2019-02-07T03:56:52.515Z,26.90
2019-02-07T03:57:52.439Z,24.90
2019-02-07T03:58:52.385Z,20.40
2019-02-07T03:59:52.345Z,20.50
2019-02-07T04:00:52.312Z,18.80
2019-02-07T04:01:52.246Z,19.90
2019-02-07T04:02:52.228Z,20.00
2019-02-07T04:03:52.175Z,18.70
2019-02-07T04:04:52.106Z,19.70
2019-02-07T04:05:52.077Z,18.30
2019-02-07T04:06:52.064Z,18.40
2019-02-07T04:07:51.970Z,17.90
2019-02-07T04:08:51.944Z,17.50
2019-02-07T04:09:51.897Z,18.30
2019-02-07T04:10:51.861Z,18.00
2019-02-07T04:11:51.839Z,18.00
2019-02-07T04:12:51.752Z,17.60
2019-02-07T04:13:51.713Z,17.80
2019-02-07T04:14:51.696Z,17.60
2019-02-07T04:15:51.614Z,17.20
2019-02-07T04:16:51.607Z,17.80
2019-02-07T04:17:51.557Z,17.10
2019-02-07T04:18:51.476Z,17.20
2019-02-07T04:19:51.466Z,17.40
2019-02-07T04:20:51.409Z,15.90
2019-02-07T04:21:51.352Z,17.20
2019-02-07T04:22:51.329Z,17.00
2019-02-07T04:23:51.245Z,17.70
2019-02-07T04:24:51.194Z,17.30
2019-02-07T04:25:51.167Z,16.30
2019-02-07T04:26:51.112Z,15.90
2019-02-07T04:27:51.110Z,16.20
2019-02-07T04:28:51.006Z,16.70
2019-02-07T04:29:50.977Z,16.30
2019-02-07T04:30:50.925Z,16.90
2019-02-07T04:31:50.875Z,16.40
2019-02-07T04:32:50.870Z,15.80
2019-02-07T04:33:50.913Z,16.50
2019-02-07T04:34:50.749Z,16.10
2019-02-07T04:35:50.700Z,16.80
2019-02-07T04:36:50.664Z,16.00
2019-02-07T04:37:50.624Z,16.20
2019-02-07T04:38:50.599Z,16.20
2019-02-07T04:39:50.524Z,16.20
2019-02-07T04:40:50.499Z,15.60
2019-02-07T04:41:50.429Z,16.60
2019-02-07T04:42:50.369Z,15.90
2019-02-07T04:43:50.330Z,15.70
2019-02-07T04:44:50.369Z,16.60
2019-02-07T04:45:50.252Z,16.00
2019-02-07T04:46:50.225Z,16.50
2019-02-07T04:47:50.165Z,15.70
2019-02-07T04:48:50.124Z,16.00
2019-02-07T04:49:50.117Z,16.10
2019-02-07T04:50:50.012Z,16.10
2019-02-07T04:51:49.987Z,16.50
2019-02-07T04:52:50.043Z,15.60
2019-02-07T04:53:49.892Z,16.20
2019-02-07T04:54:49.838Z,14.60
2019-02-07T04:55:49.793Z,15.70
2019-02-07T04:56:49.735Z,16.20
2019-02-07T04:57:49.720Z,16.40
2019-02-07T04:58:49.671Z,15.70
2019-02-07T04:59:49.605Z,15.90
2019-02-07T05:00:49.551Z,15.90
2019-02-07T05:01:49.510Z,16.20
2019-02-07T05:02:49.487Z,15.40
2019-02-07T05:03:49.432Z,15.30
2019-02-07T05:04:49.399Z,14.90
2019-02-07T05:05:49.337Z,15.70
2019-02-07T05:06:49.305Z,15.60
2019-02-07T05:07:49.265Z,14.80
2019-02-07T05:08:49.213Z,15.00
2019-02-07T05:09:49.147Z,15.60
2019-02-07T05:10:49.103Z,15.80
2019-02-07T05:11:49.076Z,15.10
2019-02-07T05:12:49.042Z,14.50
2019-02-07T05:13:48.966Z,15.50
2019-02-07T05:14:48.912Z,15.10
2019-02-07T05:15:48.883Z,15.60
2019-02-07T05:16:48.837Z,15.00
2019-02-07T05:17:48.824Z,15.50
2019-02-07T05:18:48.778Z,15.00
2019-02-07T05:19:48.697Z,14.80
2019-02-07T05:20:48.647Z,14.80
2019-02-07T05:21:48.600Z,14.30
2019-02-07T05:22:48.558Z,14.10
2019-02-07T05:23:48.545Z,15.50
2019-02-07T05:24:48.483Z,14.60
2019-02-07T05:25:48.426Z,14.30
2019-02-07T05:26:48.376Z,14.70
2019-02-07T05:27:48.335Z,14.50
2019-02-07T05:28:48.285Z,14.70
2019-02-07T05:29:48.266Z,14.10
2019-02-07T05:30:48.196Z,14.90
2019-02-07T05:31:48.157Z,13.90
2019-02-07T05:32:48.103Z,15.20
2019-02-07T05:33:48.057Z,15.00
2019-02-07T05:34:48.032Z,15.10
2019-02-07T05:35:47.958Z,14.50
2019-02-07T05:36:47.919Z,14.60
2019-02-07T05:37:49.737Z,15.20
2019-02-07T05:38:47.833Z,15.40
2019-02-07T05:39:47.810Z,15.40
2019-02-07T05:40:47.740Z,14.90
2019-02-07T05:41:47.690Z,14.90
2019-02-07T05:42:47.662Z,15.30
2019-02-07T05:43:48.260Z,14.70
2019-02-07T05:44:47.596Z,15.40
2019-02-07T05:45:47.518Z,14.60
2019-02-07T05:46:51.096Z,15.50
2019-02-07T05:47:47.419Z,14.60
2019-02-07T05:48:47.391Z,13.90
2019-02-07T05:49:47.371Z,14.30
2019-02-07T05:50:47.304Z,14.00
2019-02-07T05:51:47.239Z,14.80
2019-02-07T05:52:47.208Z,14.10
2019-02-07T05:53:47.145Z,15.00
2019-02-07T05:54:47.094Z,14.00
2019-02-07T05:55:47.082Z,14.30
2019-02-07T05:56:47.026Z,14.00
2019-02-07T05:57:46.967Z,13.80
2019-02-07T05:58:46.941Z,14.60
2019-02-07T05:59:46.921Z,14.20
2019-02-07T06:00:46.865Z,14.50
2019-02-07T06:01:46.782Z,14.60
2019-02-07T06:02:46.747Z,14.10
2019-02-07T06:03:46.699Z,12.50
2019-02-07T06:04:46.652Z,13.20
2019-02-07T06:05:46.626Z,14.10
2019-02-07T06:06:46.571Z,14.20
2019-02-07T06:07:46.515Z,13.20
2019-02-07T06:08:46.471Z,13.70
2019-02-07T06:09:48.937Z,14.00
2019-02-07T06:10:46.415Z,13.60
2019-02-07T06:11:46.341Z,14.00
2019-02-07T06:12:46.280Z,13.70
2019-02-07T06:13:46.238Z,14.40
2019-02-07T06:14:46.194Z,14.60
2019-02-07T06:15:46.177Z,13.60
2019-02-07T06:16:46.157Z,13.90
2019-02-07T06:17:46.062Z,13.60
2019-02-07T06:18:46.026Z,14.00
2019-02-07T06:19:45.961Z,13.90
2019-02-07T06:20:45.925Z,13.90
2019-02-07T06:21:48.158Z,14.00
2019-02-07T06:22:45.873Z,14.60
2019-02-07T06:23:45.817Z,13.90
2019-02-07T06:24:45.768Z,14.00
2019-02-07T06:25:45.705Z,13.70
2019-02-07T06:26:45.723Z,12.80
2019-02-07T06:27:45.633Z,13.50
2019-02-07T06:28:45.560Z,13.90
2019-02-07T06:29:45.530Z,13.20
2019-02-07T06:30:45.476Z,13.70
2019-02-07T06:31:45.459Z,13.90
2019-02-07T06:32:45.413Z,13.90
2019-02-07T06:33:45.342Z,13.90
2019-02-07T06:34:45.296Z,13.30
2019-02-07T06:35:45.252Z,13.10
2019-02-07T06:36:45.216Z,12.60
2019-02-07T06:37:45.188Z,13.60
2019-02-07T06:38:45.112Z,13.10
2019-02-07T06:39:45.094Z,13.10
2019-02-07T06:40:45.048Z,13.60
2019-02-07T06:41:45.039Z,12.70
2019-02-07T06:42:44.974Z,12.10
2019-02-07T06:43:44.928Z,13.00
2019-02-07T06:44:44.839Z,13.20
2019-02-07T06:45:44.793Z,12.80
2019-02-07T06:46:44.764Z,13.50
2019-02-07T06:47:44.734Z,13.40
2019-02-07T06:48:44.697Z,13.00
2019-02-07T06:49:44.621Z,13.00
2019-02-07T06:50:44.589Z,13.10
2019-02-07T06:51:44.536Z,13.60
2019-02-07T06:52:44.494Z,14.00
2019-02-07T06:53:44.491Z,14.20
2019-02-07T06:54:44.413Z,13.30
2019-02-07T06:55:44.362Z,14.10
2019-02-07T06:56:44.310Z,13.90
2019-02-07T06:57:44.261Z,14.10
2019-02-07T06:58:44.211Z,14.30
2019-02-07T06:59:44.194Z,14.60
2019-02-07T07:00:44.136Z,14.20
2019-02-07T07:01:44.095Z,14.20
2019-02-07T07:02:44.086Z,14.10
2019-02-07T07:03:44.011Z,14.50
2019-02-07T07:04:43.984Z,14.20
2019-02-07T07:05:43.912Z,14.70
2019-02-07T07:06:43.855Z,14.60
2019-02-07T07:07:43.820Z,15.00
2019-02-07T07:08:43.768Z,15.40
2019-02-07T07:09:43.758Z,15.10
2019-02-07T07:10:43.671Z,15.20
2019-02-07T07:11:43.628Z,16.00
2019-02-07T07:12:43.587Z,15.90
2019-02-07T07:13:43.535Z,16.10
2019-02-07T07:14:43.521Z,17.20
2019-02-07T07:15:43.449Z,16.80
2019-02-07T07:16:43.424Z,17.50
2019-02-07T07:17:43.355Z,17.90
2019-02-07T07:18:43.335Z,19.60
2019-02-07T07:19:43.294Z,19.80
2019-02-07T07:20:43.273Z,20.60
2019-02-07T07:21:43.173Z,21.80
2019-02-07T07:22:43.119Z,22.60
2019-02-07T07:23:43.084Z,23.10
2019-02-07T07:24:43.038Z,22.10
2019-02-07T07:25:43.023Z,22.40
2019-02-07T07:26:42.952Z,21.50
2019-02-07T07:27:42.896Z,21.30
2019-02-07T07:28:42.868Z,21.20
2019-02-07T07:29:42.803Z,21.40
2019-02-07T07:30:42.782Z,22.10
2019-02-07T07:31:42.733Z,20.80
2019-02-07T07:32:42.680Z,22.00
2019-02-07T07:33:42.626Z,22.40
2019-02-07T07:34:42.651Z,21.60
2019-02-07T07:35:42.564Z,22.30
2019-02-07T07:36:42.496Z,22.80
2019-02-07T07:37:42.476Z,20.70
2019-02-07T07:38:42.411Z,21.30
2019-02-07T07:39:42.360Z,21.00
2019-02-07T07:40:42.327Z,20.00
2019-02-07T07:41:42.267Z,21.20
2019-02-07T07:42:42.224Z,21.00
2019-02-07T07:43:42.193Z,20.80
2019-02-07T07:44:42.158Z,21.00
2019-02-07T07:45:42.095Z,19.70
2019-02-07T07:46:42.047Z,21.00
2019-02-07T07:47:42.002Z,21.70
2019-02-07T07:48:41.946Z,20.30
2019-02-07T07:49:41.901Z,20.60
2019-02-07T07:50:41.879Z,22.00
2019-02-07T07:51:41.808Z,20.60
2019-02-07T07:52:41.778Z,20.50
2019-02-07T07:53:41.729Z,21.30
2019-02-07T07:54:41.697Z,20.20
2019-02-07T07:55:41.659Z,20.60
2019-02-07T07:56:41.596Z,20.60
2019-02-07T07:57:41.554Z,19.90
2019-02-07T07:58:41.556Z,20.40
2019-02-07T07:59:41.461Z,20.20
2019-02-07T08:00:41.411Z,19.30
2019-02-07T08:01:41.395Z,18.40
2019-02-07T08:02:41.335Z,18.60
2019-02-07T08:03:41.309Z,19.30
2019-02-07T08:04:41.285Z,18.80
2019-02-07T08:05:41.200Z,18.70
2019-02-07T08:06:41.180Z,18.10
2019-02-07T08:07:41.112Z,19.30
2019-02-07T08:08:41.052Z,17.60
2019-02-07T08:09:41.000Z,18.20
2019-02-07T08:10:40.970Z,18.70
2019-02-07T08:11:40.968Z,17.90
2019-02-07T08:12:40.883Z,18.00
2019-02-07T08:13:40.850Z,17.20
2019-02-07T08:14:40.798Z,18.00
2019-02-07T08:15:40.795Z,17.90
2019-02-07T08:16:40.721Z,18.00
2019-02-07T08:17:47.458Z,17.20
2019-02-07T08:18:40.631Z,18.10
2019-02-07T08:19:40.603Z,16.70
2019-02-07T08:20:40.537Z,16.50
2019-02-07T08:21:40.540Z,16.50
2019-02-07T08:22:40.455Z,16.90
2019-02-07T08:23:40.418Z,17.20
2019-02-07T08:24:40.348Z,17.30
2019-02-07T08:25:40.304Z,18.90
2019-02-07T08:26:40.305Z,16.70
2019-02-07T08:27:40.270Z,18.10
2019-02-07T08:28:40.188Z,18.50
2019-02-07T08:29:40.206Z,18.20
2019-02-07T08:30:40.120Z,18.90
2019-02-07T08:31:40.077Z,19.60
2019-02-07T08:32:40.010Z,19.50
2019-02-07T08:33:39.938Z,19.70
2019-02-07T08:34:39.926Z,20.60
2019-02-07T08:35:39.856Z,21.30
2019-02-07T08:36:39.825Z,20.70
2019-02-07T08:37:39.784Z,21.00
2019-02-07T08:38:39.762Z,21.20
2019-02-07T08:39:39.704Z,22.00
2019-02-07T08:40:39.645Z,21.90
2019-02-07T08:41:39.626Z,22.80
2019-02-07T08:42:39.619Z,22.20
2019-02-07T08:43:39.516Z,22.80
2019-02-07T08:44:39.449Z,22.60
2019-02-07T08:45:39.493Z,22.40
2019-02-07T08:46:39.391Z,22.50
2019-02-07T08:47:39.368Z,22.00
2019-02-07T08:48:39.274Z,23.30
2019-02-07T08:49:39.234Z,22.70
2019-02-07T08:50:39.196Z,21.90
2019-02-07T08:51:39.146Z,23.90
2019-02-07T08:52:39.128Z,22.40
2019-02-07T08:53:39.092Z,22.70
2019-02-07T08:54:39.029Z,21.70
2019-02-07T08:55:39.056Z,22.40
2019-02-07T08:56:38.932Z,23.10
2019-02-07T08:57:38.891Z,22.60
2019-02-07T08:58:38.865Z,22.80
2019-02-07T08:59:38.789Z,22.10
2019-02-07T09:00:38.742Z,21.90
2019-02-07T09:01:38.715Z,22.90
2019-02-07T09:02:38.647Z,21.40
2019-02-07T09:03:38.623Z,22.60
2019-02-07T09:04:38.583Z,21.70
2019-02-07T09:05:38.513Z,21.40
2019-02-07T09:06:38.471Z,21.50
2019-02-07T09:07:38.434Z,21.70
2019-02-07T09:08:38.409Z,21.70
2019-02-07T09:09:38.351Z,21.30
2019-02-07T09:10:38.328Z,21.40
2019-02-07T09:11:38.293Z,19.60
2019-02-07T09:12:38.230Z,19.90
2019-02-07T09:13:38.237Z,19.70
2019-02-07T09:14:38.121Z,20.00
2019-02-07T09:15:38.195Z,18.10
2019-02-07T09:16:38.020Z,17.90
2019-02-07T09:17:38.010Z,17.30
2019-02-07T09:18:37.965Z,14.20
2019-02-07T09:19:37.914Z,12.00
2019-02-07T09:20:37.880Z,10.00
2019-02-07T09:21:37.840Z,8.30
2019-02-07T09:22:37.763Z,6.60
2019-02-07T09:23:37.715Z,5.80
2019-02-07T09:24:37.715Z,4.60
2019-02-07T09:25:37.668Z,4.20
2019-02-07T09:26:37.594Z,4.20
2019-02-07T09:27:37.611Z,3.50
2019-02-07T09:28:37.505Z,3.50
2019-02-07T09:29:37.495Z,3.20
2019-02-07T09:30:37.424Z,3.90
2019-02-07T09:31:37.388Z,2.90
2019-02-07T09:32:37.370Z,3.00
2019-02-07T09:33:37.346Z,3.40
2019-02-07T09:34:37.261Z,3.50
2019-02-07T09:35:37.223Z,3.60
2019-02-07T09:36:37.158Z,3.00
2019-02-07T09:37:37.116Z,3.10
2019-02-07T09:38:37.098Z,3.30
2019-02-07T09:39:37.060Z,3.70
2019-02-07T09:40:37.027Z,3.70
2019-02-07T09:41:36.947Z,4.00
2019-02-07T09:42:36.910Z,3.90
2019-02-07T09:43:36.906Z,4.20
2019-02-07T09:44:36.847Z,4.50
2019-02-07T09:45:36.781Z,4.20
2019-02-07T09:46:36.744Z,4.80
2019-02-07T09:47:36.689Z,4.60
2019-02-07T09:48:36.659Z,4.80
2019-02-07T09:49:36.656Z,4.50
2019-02-07T09:50:36.577Z,4.40
2019-02-07T09:51:36.516Z,4.30
2019-02-07T09:52:36.486Z,5.40
2019-02-07T09:53:36.437Z,4.60
2019-02-07T09:54:36.445Z,4.10
2019-02-07T09:55:36.364Z,4.70
2019-02-07T09:56:36.327Z,4.60
2019-02-07T09:57:36.264Z,5.00
2019-02-07T09:58:36.326Z,5.30
2019-02-07T09:59:36.178Z,4.90
2019-02-07T10:00:36.297Z,5.30
2019-02-07T10:01:36.099Z,5.20
2019-02-07T10:02:36.057Z,5.00
2019-02-07T10:03:36.015Z,5.20
2019-02-07T10:04:35.980Z,5.60
2019-02-07T10:05:35.970Z,5.10
2019-02-07T10:06:35.926Z,5.00
2019-02-07T10:07:35.890Z,5.40
2019-02-07T10:08:35.825Z,5.20
2019-02-07T10:09:35.769Z,5.40
2019-02-07T10:10:35.752Z,5.90
2019-02-07T10:11:35.684Z,5.40
2019-02-07T10:12:35.671Z,5.50
2019-02-07T10:13:35.644Z,5.10
2019-02-07T10:14:35.578Z,5.20
2019-02-07T10:15:35.522Z,5.90
2019-02-07T10:16:35.515Z,5.30
2019-02-07T10:17:35.516Z,5.40
2019-02-07T10:18:35.415Z,5.60
2019-02-07T10:19:35.368Z,5.60
2019-02-07T10:20:37.309Z,5.10
2019-02-07T10:21:35.343Z,5.40
2019-02-07T10:22:35.277Z,5.30
2019-02-07T10:23:35.220Z,5.60
2019-02-07T10:24:35.176Z,5.90
2019-02-07T10:25:35.133Z,5.80
2019-02-07T10:26:35.120Z,5.50
2019-02-07T10:27:35.066Z,5.20
2019-02-07T10:28:35.022Z,5.40
2019-02-07T10:29:35.036Z,6.10
2019-02-07T10:30:34.917Z,5.60
2019-02-07T10:31:34.917Z,5.70
2019-02-07T10:32:34.916Z,5.90
2019-02-07T10:33:34.803Z,5.30
2019-02-07T10:34:34.761Z,5.30
2019-02-07T10:35:34.755Z,5.60
2019-02-07T10:36:34.700Z,6.20
2019-02-07T10:37:34.652Z,5.50
2019-02-07T10:38:34.715Z,5.10
2019-02-07T10:39:34.578Z,5.30
2019-02-07T10:40:34.507Z,6.10
2019-02-07T10:41:34.519Z,5.30
2019-02-07T10:42:34.590Z,5.70
2019-02-07T10:43:34.472Z,5.30
2019-02-07T10:44:34.391Z,5.30
2019-02-07T10:45:34.311Z,5.00
2019-02-07T10:46:34.407Z,5.30
2019-02-07T10:47:34.336Z,5.70
2019-02-07T10:48:43.953Z,5.80
2019-02-07T10:49:34.182Z,5.30
2019-02-07T10:50:34.142Z,5.90
2019-02-07T10:51:34.074Z,5.50
2019-02-07T10:52:34.089Z,5.30
2019-02-07T10:53:34.012Z,6.10
2019-02-07T10:54:33.960Z,5.10
2019-02-07T10:55:33.941Z,5.40
2019-02-07T10:56:34.024Z,5.40
2019-02-07T10:57:33.842Z,5.20
2019-02-07T10:58:33.832Z,5.00
2019-02-07T10:59:33.746Z,5.50
2019-02-07T11:00:33.686Z,5.80
2019-02-07T11:01:33.758Z,6.20
2019-02-07T11:02:34.196Z,6.00
2019-02-07T11:03:33.635Z,5.30
2019-02-07T11:04:33.543Z,5.70
2019-02-07T11:05:33.502Z,4.90
2019-02-07T11:06:33.529Z,5.60
2019-02-07T11:07:33.415Z,5.30
2019-02-07T11:08:33.391Z,5.40
2019-02-07T11:09:33.333Z,5.30
2019-02-07T11:10:33.509Z,5.10
2019-02-07T11:11:33.356Z,5.40
2019-02-07T11:12:33.225Z,5.20
2019-02-07T11:13:33.241Z,5.20
2019-02-07T11:14:33.227Z,5.40
2019-02-07T11:15:33.246Z,5.50
2019-02-07T11:16:33.172Z,5.80
2019-02-07T11:17:33.143Z,4.80
2019-02-07T11:18:32.984Z,5.40
2019-02-07T11:19:32.954Z,5.40
2019-02-07T11:20:33.004Z,5.20
2019-02-07T11:21:32.891Z,5.50
2019-02-07T11:22:32.803Z,5.70
2019-02-07T11:23:32.798Z,5.40
2019-02-07T11:24:32.717Z,4.80
2019-02-07T11:25:32.697Z,4.90
2019-02-07T11:26:32.649Z,5.00
2019-02-07T11:27:32.632Z,5.60
2019-02-07T11:28:32.613Z,5.50
2019-02-07T11:29:32.546Z,5.60
2019-02-07T11:30:33.292Z,5.40
2019-02-07T11:31:32.460Z,6.10
2019-02-07T11:32:32.421Z,5.70
2019-02-07T11:33:32.442Z,5.40
2019-02-07T11:34:32.333Z,5.50
2019-02-07T11:35:32.307Z,5.40
2019-02-07T11:36:32.277Z,5.50
2019-02-07T11:37:32.290Z,5.10
2019-02-07T11:38:32.211Z,5.80
2019-02-07T11:39:32.141Z,4.80
2019-02-07T11:40:32.096Z,5.60
2019-02-07T11:41:32.071Z,4.90
2019-02-07T11:42:32.022Z,5.00
2019-02-07T11:43:32.013Z,4.70
2019-02-07T11:44:31.938Z,5.00
2019-02-07T11:45:31.883Z,5.00
2019-02-07T11:46:37.317Z,5.50
2019-02-07T11:47:31.938Z,5.40
2019-02-07T11:48:31.801Z,5.00
2019-02-07T11:49:31.766Z,5.10
2019-02-07T11:50:31.702Z,5.20
2019-02-07T11:51:31.644Z,5.40
2019-02-07T11:52:31.614Z,5.20
2019-02-07T11:53:31.574Z,5.60
2019-02-07T11:54:31.577Z,5.60
2019-02-07T11:55:31.528Z,5.00
2019-02-07T11:56:31.462Z,4.80
2019-02-07T11:57:31.420Z,4.70
2019-02-07T11:58:31.382Z,4.70
2019-02-07T11:59:31.347Z,4.40
2019-02-07T12:00:31.368Z,4.70
2019-02-07T12:01:31.258Z,4.30
2019-02-07T12:02:31.265Z,4.70
2019-02-07T12:03:31.211Z,4.30
2019-02-07T12:04:31.184Z,4.60
2019-02-07T12:05:31.132Z,4.80
2019-02-07T12:06:31.095Z,4.70
2019-02-07T12:07:31.015Z,4.80
2019-02-07T12:08:30.999Z,4.40
2019-02-07T12:09:30.974Z,4.30
2019-02-07T12:10:30.930Z,4.50
2019-02-07T12:11:30.877Z,4.40
2019-02-07T12:12:30.860Z,4.80
2019-02-07T12:13:30.814Z,4.60
2019-02-07T12:14:30.783Z,5.00
2019-02-07T12:15:30.733Z,4.50
2019-02-07T12:16:30.705Z,4.40
2019-02-07T12:17:30.668Z,4.70
2019-02-07T12:18:30.639Z,4.30
2019-02-07T12:19:30.613Z,4.60
2019-02-07T12:20:30.546Z,4.10
2019-02-07T12:21:30.500Z,4.30
2019-02-07T12:22:30.455Z,4.20
2019-02-07T12:23:30.466Z,4.40
2019-02-07T12:24:30.380Z,4.10
2019-02-07T12:25:30.336Z,3.90
2019-02-07T12:26:30.310Z,4.10
2019-02-07T12:27:30.304Z,4.20
2019-02-07T12:28:30.252Z,4.30
2019-02-07T12:29:30.190Z,4.40
2019-02-07T12:30:30.153Z,3.90
2019-02-07T12:31:30.112Z,4.00
2019-02-07T12:32:30.081Z,4.30
2019-02-07T12:33:30.082Z,4.20
2019-02-07T12:34:30.010Z,4.10
2019-02-07T12:35:29.958Z,4.10
2019-02-07T12:36:29.974Z,4.40
2019-02-07T12:37:29.906Z,3.90
2019-02-07T12:38:29.888Z,4.10
2019-02-07T12:39:29.897Z,4.30
2019-02-07T12:40:29.774Z,4.10
2019-02-07T12:41:29.759Z,3.70
2019-02-07T12:42:29.803Z,4.20
2019-02-07T12:43:29.653Z,4.20
2019-02-07T12:44:29.663Z,4.30
2019-02-07T12:45:30.174Z,4.10
2019-02-07T12:46:29.546Z,4.30
2019-02-07T12:47:29.506Z,4.60
2019-02-07T12:48:29.546Z,4.10
2019-02-07T12:49:29.652Z,3.70
2019-02-07T12:50:29.527Z,4.40
2019-02-07T12:51:29.357Z,4.10
2019-02-07T12:52:29.326Z,4.40
2019-02-07T12:53:29.267Z,3.90
2019-02-07T12:54:29.388Z,3.80
2019-02-07T12:55:32.853Z,4.00
2019-02-07T12:56:29.397Z,3.60
2019-02-07T12:57:29.141Z,4.30
2019-02-07T12:58:29.080Z,4.00
2019-02-07T12:59:29.066Z,3.90
2019-02-07T13:00:29.224Z,4.60